createdAt,value
2018-08-04T00:01:25.998Z,19.90
2018-08-04T00:03:54.258Z,18.90
2018-08-04T00:06:22.457Z,19.50
2018-08-04T00:08:50.670Z,19.67
2018-08-04T00:11:18.950Z,21.13
2018-08-04T00:13:47.109Z,19.50
2018-08-04T00:16:15.335Z,19.50
2018-08-04T00:18:43.558Z,18.87
2018-08-04T00:21:11.763Z,19.53
2018-08-04T00:23:40.043Z,17.63
2018-08-04T00:26:08.319Z,19.20
2018-08-04T00:28:36.497Z,18.33
2018-08-04T00:31:04.705Z,19.40
2018-08-04T00:33:32.941Z,18.53
2018-08-04T00:36:01.133Z,18.07
2018-08-04T00:38:29.343Z,19.67
2018-08-04T00:40:57.531Z,18.43
2018-08-04T00:43:25.689Z,19.33
2018-08-04T00:45:53.870Z,18.07
2018-08-04T00:48:22.047Z,19.07
2018-08-04T00:50:50.255Z,18.27
2018-08-04T00:53:18.441Z,17.57
2018-08-04T00:55:46.671Z,18.57
2018-08-04T00:58:14.853Z,19.60
2018-08-04T01:00:43.082Z,20.90
2018-08-04T01:03:11.271Z,19.30
2018-08-04T01:05:39.509Z,19.60
2018-08-04T01:08:07.771Z,20.40
2018-08-04T01:10:35.955Z,17.73
2018-08-04T01:13:04.163Z,19.07
2018-08-04T01:15:32.359Z,18.77
2018-08-04T01:18:00.270Z,20.33
2018-08-04T01:20:28.442Z,18.67
2018-08-04T01:22:56.675Z,18.93
2018-08-04T01:25:24.845Z,18.50
2018-08-04T01:27:52.793Z,18.13
2018-08-04T01:30:20.966Z,18.23
2018-08-04T01:32:49.195Z,19.03
2018-08-04T01:35:17.371Z,18.40
2018-08-04T01:37:45.552Z,19.03
2018-08-04T01:40:13.774Z,19.20
2018-08-04T01:42:42.052Z,21.23
2018-08-04T01:45:10.218Z,20.30
2018-08-04T01:47:38.465Z,19.40
2018-08-04T01:50:06.655Z,19.20
2018-08-04T01:52:34.922Z,19.90
2018-08-04T01:55:03.090Z,19.40
2018-08-04T01:57:31.340Z,19.03
2018-08-04T01:59:59.556Z,19.57
2018-08-04T02:02:27.723Z,21.30
2018-08-04T02:04:55.966Z,19.93
2018-08-04T02:07:24.234Z,18.30
2018-08-04T02:09:52.423Z,17.67
2018-08-04T02:12:20.735Z,17.77
2018-08-04T02:14:48.908Z,19.20
2018-08-04T02:17:17.120Z,17.33
2018-08-04T02:19:45.351Z,17.60
2018-08-04T02:22:13.286Z,17.90
2018-08-04T02:24:41.470Z,17.03
2018-08-04T02:27:09.734Z,18.40
2018-08-04T02:29:37.939Z,16.33
2018-08-04T02:32:06.259Z,17.30
2018-08-04T02:34:34.438Z,18.90
2018-08-04T02:37:02.657Z,18.83
2018-08-04T02:39:30.967Z,18.30
2018-08-04T02:41:59.139Z,19.70
2018-08-04T02:44:27.413Z,20.47
2018-08-04T02:46:55.628Z,19.40
2018-08-04T02:49:23.966Z,23.50
2018-08-04T02:51:52.169Z,20.50
2018-08-04T02:54:20.368Z,19.83
2018-08-04T02:56:48.575Z,19.83
2018-08-04T02:59:16.749Z,20.40
2018-08-04T03:01:44.975Z,18.03
2018-08-04T03:04:13.148Z,19.30
2018-08-04T03:06:41.414Z,19.40
2018-08-04T03:09:11.415Z,19.57
2018-08-04T03:11:39.907Z,19.97
2018-08-04T03:14:08.173Z,18.87
2018-08-04T03:16:36.393Z,19.10
2018-08-04T03:19:04.627Z,17.90
2018-08-04T03:21:32.912Z,18.93
2018-08-04T03:24:01.110Z,20.10
2018-08-04T03:26:29.318Z,17.80
2018-08-04T03:28:57.550Z,19.57
2018-08-04T03:31:25.775Z,19.57
2018-08-04T03:33:53.987Z,20.30
2018-08-04T03:36:22.159Z,19.83
2018-08-04T03:38:50.398Z,18.63
2018-08-04T03:41:18.582Z,18.23
2018-08-04T03:43:46.769Z,19.40
2018-08-04T03:46:14.981Z,19.80
2018-08-04T03:48:43.174Z,20.27
2018-08-04T03:51:11.401Z,19.80
2018-08-04T03:53:39.666Z,19.67
2018-08-04T03:56:07.874Z,16.73
2018-08-04T03:58:36.110Z,17.90
2018-08-04T04:01:04.341Z,17.83
2018-08-04T04:03:32.519Z,16.23
2018-08-04T04:06:00.696Z,17.47
2018-08-04T04:08:28.938Z,17.70
2018-08-04T04:13:31.999Z,16.63
2018-08-04T04:16:00.186Z,16.27
2018-08-04T04:18:28.407Z,15.13
2018-08-04T04:20:56.639Z,15.80
2018-08-04T04:23:24.835Z,14.80
2018-08-04T04:25:53.178Z,16.30
2018-08-04T04:28:21.116Z,16.80
2018-08-04T04:30:49.309Z,17.00
2018-08-04T04:33:17.554Z,16.47
2018-08-04T04:35:45.802Z,17.17
2018-08-04T04:38:14.031Z,17.73
2018-08-04T04:40:42.262Z,18.47
2018-08-04T04:43:10.477Z,18.33
2018-08-04T04:45:38.792Z,16.60
2018-08-04T04:48:07.013Z,17.37
2018-08-04T04:50:35.250Z,20.17
2018-08-04T04:53:03.572Z,18.30
2018-08-04T04:55:31.882Z,20.80
2018-08-04T04:58:00.028Z,19.73
2018-08-04T05:00:28.319Z,19.33
2018-08-04T05:02:56.523Z,17.80
2018-08-04T05:05:24.808Z,18.60
2018-08-04T05:07:53.026Z,17.30
2018-08-04T05:10:21.268Z,18.80
2018-08-04T05:12:50.366Z,18.57
2018-08-04T05:15:18.569Z,18.97
2018-08-04T05:17:46.816Z,18.67
2018-08-04T05:20:15.012Z,19.00
2018-08-04T05:22:43.244Z,18.83
2018-08-04T05:25:11.438Z,18.90
2018-08-04T05:27:39.678Z,19.77
2018-08-04T05:30:07.869Z,18.47
2018-08-04T05:32:36.174Z,18.63
2018-08-04T05:35:04.498Z,18.37
2018-08-04T05:37:32.742Z,19.37
2018-08-04T05:40:00.886Z,17.07
2018-08-04T05:42:29.058Z,17.53
2018-08-04T05:44:57.264Z,16.87
2018-08-04T05:47:25.503Z,15.57
2018-08-04T05:49:53.678Z,17.00
2018-08-04T05:52:21.946Z,16.17
2018-08-04T05:54:50.165Z,15.67
2018-08-04T05:57:18.386Z,16.30
2018-08-04T05:59:46.602Z,16.20
2018-08-04T06:02:14.802Z,15.10
2018-08-04T06:04:43.050Z,16.17
2018-08-04T06:07:11.331Z,15.23
2018-08-04T06:09:39.589Z,15.00
2018-08-04T06:12:07.860Z,15.40
2018-08-04T06:14:36.064Z,14.93
2018-08-04T06:17:04.294Z,15.37
2018-08-04T06:19:32.481Z,15.57
2018-08-04T06:22:00.717Z,15.67
2018-08-04T06:24:28.897Z,14.67
2018-08-04T06:26:57.140Z,14.80
2018-08-04T06:29:25.375Z,14.43
2018-08-04T06:31:54.106Z,14.87
2018-08-04T06:34:22.310Z,14.90
2018-08-04T06:36:50.489Z,14.13
2018-08-04T06:39:18.871Z,13.87
2018-08-04T06:41:47.112Z,12.57
2018-08-04T06:44:15.281Z,14.33
2018-08-04T06:46:43.514Z,14.00
2018-08-04T06:49:11.706Z,14.90
2018-08-04T06:51:39.955Z,13.10
2018-08-04T06:54:08.124Z,13.60
2018-08-04T06:56:36.429Z,13.93
2018-08-04T06:59:04.659Z,12.57
2018-08-04T07:01:32.871Z,12.00
2018-08-04T07:04:01.142Z,13.20
2018-08-04T07:06:29.289Z,13.03
2018-08-04T07:08:57.505Z,13.00
2018-08-04T07:11:25.705Z,13.63
2018-08-04T07:13:53.946Z,12.57
2018-08-04T07:16:22.170Z,13.33
2018-08-04T07:18:50.363Z,13.90
2018-08-04T07:21:18.556Z,11.50
2018-08-04T07:23:46.718Z,11.63
2018-08-04T07:26:14.974Z,12.93
2018-08-04T07:28:43.259Z,13.13
2018-08-04T07:31:11.222Z,11.20
2018-08-04T07:33:39.474Z,12.30
2018-08-04T07:36:07.658Z,11.83
2018-08-04T07:38:35.934Z,12.17
2018-08-04T07:41:03.965Z,12.13
2018-08-04T07:43:32.114Z,12.17
2018-08-04T07:46:06.816Z,11.07
2018-08-04T07:48:35.121Z,11.43
2018-08-04T07:51:03.329Z,12.10
2018-08-04T07:53:31.499Z,11.97
2018-08-04T07:55:59.698Z,11.37
2018-08-04T07:58:27.912Z,11.87
2018-08-04T08:00:56.208Z,12.10
2018-08-04T08:03:24.449Z,12.07
2018-08-04T08:05:52.616Z,11.93
2018-08-04T08:08:20.802Z,11.40
2018-08-04T08:10:49.249Z,11.30
2018-08-04T08:13:17.403Z,11.90
2018-08-04T08:15:45.674Z,10.53
2018-08-04T08:18:13.867Z,11.40
2018-08-04T08:20:42.026Z,12.07
2018-08-04T08:23:10.253Z,10.80
2018-08-04T08:25:38.472Z,12.53
2018-08-04T08:28:06.749Z,12.93
2018-08-04T08:30:34.961Z,11.70
2018-08-04T08:33:03.159Z,11.20
2018-08-04T08:35:31.398Z,11.03
2018-08-04T08:37:59.638Z,12.00
2018-08-04T08:40:27.847Z,10.73
2018-08-04T08:42:56.066Z,11.10
2018-08-04T08:45:24.249Z,11.73
2018-08-04T08:47:52.513Z,11.20
2018-08-04T08:50:20.737Z,11.47
2018-08-04T08:52:48.921Z,10.97
2018-08-04T08:55:17.082Z,12.07
2018-08-04T08:57:45.245Z,10.97
2018-08-04T09:00:13.417Z,11.20
2018-08-04T09:02:41.673Z,10.40
2018-08-04T09:05:10.608Z,9.90
2018-08-04T09:07:38.927Z,10.83
2018-08-04T09:10:10.590Z,10.90
2018-08-04T09:12:38.823Z,9.93
2018-08-04T09:15:07.487Z,10.93
2018-08-04T09:17:35.694Z,11.10
2018-08-04T09:20:04.398Z,10.50
2018-08-04T09:22:34.227Z,10.10
2018-08-04T09:25:02.424Z,9.80
2018-08-04T09:27:30.677Z,10.47
2018-08-04T09:29:58.845Z,10.30
2018-08-04T09:32:27.048Z,10.90
2018-08-04T09:34:55.229Z,9.50
2018-08-04T09:37:23.432Z,10.17
2018-08-04T09:39:51.366Z,9.93
2018-08-04T09:42:19.546Z,9.70
2018-08-04T09:44:47.733Z,8.67
2018-08-04T09:47:15.937Z,9.00
2018-08-04T09:49:44.121Z,10.37
2018-08-04T09:52:13.421Z,10.43
2018-08-04T09:54:41.622Z,9.33
2018-08-04T09:57:09.793Z,8.90
2018-08-04T09:59:38.060Z,8.20
2018-08-04T10:02:10.416Z,7.87
2018-08-04T10:04:38.789Z,10.47
2018-08-04T10:07:07.339Z,10.40
2018-08-04T10:09:35.498Z,10.17
2018-08-04T10:12:03.712Z,9.73
2018-08-04T10:14:32.595Z,9.67
2018-08-04T10:17:01.056Z,9.70
2018-08-04T10:19:29.263Z,9.40
2018-08-04T10:21:57.585Z,9.60
2018-08-04T10:24:25.544Z,9.20
2018-08-04T10:26:54.752Z,8.73
2018-08-04T10:29:22.986Z,9.20
2018-08-04T10:31:51.317Z,9.83
2018-08-04T10:34:19.567Z,9.80
2018-08-04T10:36:47.786Z,11.00
2018-08-04T10:39:16.158Z,9.30
2018-08-04T10:41:44.463Z,9.83
2018-08-04T10:44:12.884Z,9.00
2018-08-04T10:46:41.099Z,9.77
2018-08-04T10:49:09.429Z,9.77
2018-08-04T10:51:37.874Z,9.47
2018-08-04T10:54:06.185Z,8.63
2018-08-04T10:56:34.489Z,9.43
2018-08-04T10:59:02.717Z,9.90
2018-08-04T11:01:31.049Z,8.23
2018-08-04T11:03:59.263Z,8.90
2018-08-04T11:06:27.698Z,8.97
2018-08-04T11:08:55.939Z,8.10
2018-08-04T11:11:23.910Z,8.40
2018-08-04T11:13:52.217Z,7.80
2018-08-04T11:16:20.522Z,8.67
2018-08-04T11:18:48.837Z,8.43
2018-08-04T11:21:17.064Z,7.53
2018-08-04T11:23:45.378Z,8.00
2018-08-04T11:26:13.631Z,7.83
2018-08-04T11:28:41.867Z,7.20
2018-08-04T11:31:10.083Z,8.33
2018-08-04T11:33:38.265Z,6.93
2018-08-04T11:36:06.604Z,8.00
2018-08-04T11:38:34.954Z,8.10
2018-08-04T11:41:03.158Z,7.77
2018-08-04T11:43:31.120Z,7.87
2018-08-04T11:45:59.447Z,7.50
2018-08-04T11:48:27.648Z,7.70
2018-08-04T11:50:55.626Z,7.10
2018-08-04T11:53:23.874Z,6.87
2018-08-04T11:55:52.065Z,6.70
2018-08-04T11:58:20.039Z,6.17
2018-08-04T12:00:48.230Z,6.80
2018-08-04T12:03:16.530Z,5.57
2018-08-04T12:05:44.736Z,6.00
2018-08-04T12:08:12.942Z,4.90
2018-08-04T12:10:41.149Z,5.47
2018-08-04T12:13:09.390Z,5.50
2018-08-04T12:15:37.657Z,5.77
2018-08-04T12:18:05.936Z,6.17
2018-08-04T12:20:34.612Z,6.40
2018-08-04T12:23:03.073Z,6.40
2018-08-04T12:25:31.303Z,6.63
2018-08-04T12:27:59.523Z,6.33
2018-08-04T12:30:27.820Z,6.30
2018-08-04T12:32:56.067Z,5.33
2018-08-04T12:35:24.301Z,6.20
2018-08-04T12:37:52.578Z,6.43
2018-08-04T12:40:20.841Z,6.00
2018-08-04T12:42:49.090Z,7.00
2018-08-04T12:45:17.420Z,6.10
2018-08-04T12:47:45.668Z,6.87
2018-08-04T12:50:14.007Z,6.50
2018-08-04T12:52:42.296Z,6.77
2018-08-04T12:55:10.554Z,6.70
2018-08-04T12:57:38.733Z,5.87
2018-08-04T13:00:07.706Z,5.63
2018-08-04T13:02:35.939Z,6.83
2018-08-04T13:05:04.571Z,7.07
2018-08-04T13:07:32.855Z,6.33
2018-08-04T13:10:01.071Z,7.13
2018-08-04T13:12:29.451Z,7.20
2018-08-04T13:14:57.666Z,7.70
2018-08-04T13:17:25.934Z,7.20
2018-08-04T13:19:54.717Z,6.63
2018-08-04T13:22:22.959Z,6.83
2018-08-04T13:24:51.223Z,7.33
2018-08-04T13:27:19.502Z,6.60
2018-08-04T13:29:47.864Z,6.93
2018-08-04T13:32:16.628Z,7.13
2018-08-04T13:34:44.822Z,6.47
2018-08-04T13:37:13.048Z,6.33
2018-08-04T13:39:41.391Z,7.33
2018-08-04T13:42:09.633Z,6.73
2018-08-04T13:44:37.640Z,7.50
2018-08-04T13:47:05.727Z,7.07
2018-08-04T13:49:33.950Z,6.57
2018-08-04T13:52:02.210Z,7.70
2018-08-04T13:54:30.458Z,6.10
2018-08-04T13:56:58.713Z,6.70
2018-08-04T13:59:26.981Z,6.93
2018-08-04T14:01:55.665Z,5.90
2018-08-04T14:04:23.889Z,5.80
2018-08-04T14:06:52.198Z,6.67
2018-08-04T14:09:20.418Z,6.60
2018-08-04T14:11:48.628Z,6.90
2018-08-04T14:14:16.813Z,6.07
2018-08-04T14:16:45.035Z,6.70
2018-08-04T14:19:13.314Z,6.37
2018-08-04T14:21:41.560Z,6.53
2018-08-04T14:24:09.740Z,6.40
2018-08-04T14:26:38.055Z,6.37
2018-08-04T14:29:06.354Z,6.00
2018-08-04T14:31:34.585Z,5.90
2018-08-04T14:34:02.811Z,6.40
2018-08-04T14:36:31.031Z,5.20
2018-08-04T14:38:59.212Z,5.50
2018-08-04T14:41:27.466Z,5.40
2018-08-04T14:43:55.664Z,5.40
2018-08-04T14:46:23.896Z,5.67
2018-08-04T14:48:51.926Z,5.40
2018-08-04T14:51:20.192Z,5.97
2018-08-04T14:53:48.495Z,4.93
2018-08-04T14:56:16.760Z,4.93
2018-08-04T14:58:45.021Z,5.20
2018-08-04T15:01:13.317Z,5.13
2018-08-04T15:03:41.550Z,5.20
2018-08-04T15:06:09.851Z,5.63
2018-08-04T15:08:38.038Z,4.70
2018-08-04T15:11:06.611Z,6.10
2018-08-04T15:13:34.970Z,5.53
2018-08-04T15:16:03.156Z,4.77
2018-08-04T15:18:31.409Z,5.33
2018-08-04T15:20:59.566Z,5.00
2018-08-04T15:23:27.761Z,5.13
2018-08-04T15:25:56.040Z,6.00
2018-08-04T15:28:24.229Z,5.00
2018-08-04T15:30:52.430Z,5.30
2018-08-04T15:33:20.613Z,5.07
2018-08-04T15:35:48.836Z,5.30
2018-08-04T15:38:17.038Z,5.07
2018-08-04T15:40:45.265Z,4.80
2018-08-04T15:43:13.479Z,5.27
2018-08-04T15:45:41.730Z,5.13
2018-08-04T15:48:10.200Z,5.40
2018-08-04T15:50:38.322Z,4.63
2018-08-04T15:53:06.437Z,5.10
2018-08-04T15:55:34.714Z,5.07
2018-08-04T15:58:02.906Z,4.37
2018-08-04T16:00:31.159Z,5.50
2018-08-04T16:02:59.505Z,5.53
2018-08-04T16:05:27.744Z,5.40
2018-08-04T16:07:56.118Z,5.23
2018-08-04T16:10:24.376Z,4.90
2018-08-04T16:12:52.605Z,5.20
2018-08-04T16:15:20.790Z,4.53
2018-08-04T16:17:49.193Z,5.27
2018-08-04T16:20:18.809Z,4.87
2018-08-04T16:22:47.102Z,5.13
2018-08-04T16:25:15.786Z,5.60
2018-08-04T16:27:44.060Z,5.23
2018-08-04T16:30:12.295Z,5.30
2018-08-04T16:32:40.968Z,4.80
2018-08-04T16:35:09.747Z,4.77
2018-08-04T16:37:37.808Z,4.80
2018-08-04T16:40:06.470Z,4.90
2018-08-04T16:42:35.094Z,5.40
2018-08-04T16:45:03.909Z,5.20
2018-08-04T16:47:32.168Z,4.90
2018-08-04T16:50:00.437Z,4.63
2018-08-04T16:52:28.649Z,5.00
2018-08-04T16:54:56.837Z,4.80
2018-08-04T16:57:24.913Z,5.77
2018-08-04T16:59:53.148Z,6.30
2018-08-04T17:02:21.410Z,4.87
2018-08-04T17:04:49.610Z,5.30
2018-08-04T17:07:17.833Z,5.10
2018-08-04T17:09:46.059Z,5.80
2018-08-04T17:12:14.389Z,5.57
2018-08-04T17:14:42.607Z,5.47
2018-08-04T17:17:10.801Z,5.90
2018-08-04T17:19:39.046Z,4.77
2018-08-04T17:22:07.311Z,5.20
2018-08-04T17:24:35.498Z,4.60
2018-08-04T17:27:03.766Z,4.77
2018-08-04T17:29:31.999Z,6.07
2018-08-04T17:32:00.258Z,6.13
2018-08-04T17:34:28.774Z,5.60
2018-08-04T17:36:56.989Z,5.27
2018-08-04T17:39:25.137Z,5.57
2018-08-04T17:41:53.494Z,6.50
2018-08-04T17:44:21.805Z,6.80
2018-08-04T17:46:49.986Z,5.80
2018-08-04T17:49:18.261Z,6.73
2018-08-04T17:51:46.592Z,6.90
2018-08-04T17:54:14.815Z,7.30
2018-08-04T17:56:42.989Z,7.30
2018-08-04T17:59:11.318Z,6.13
2018-08-04T18:01:39.510Z,6.60
2018-08-04T18:04:07.819Z,7.47
2018-08-04T18:06:36.107Z,5.90
2018-08-04T18:09:07.935Z,6.00
2018-08-04T18:11:36.319Z,6.47
2018-08-04T18:14:04.744Z,6.37
2018-08-04T18:16:32.938Z,6.60
2018-08-04T18:19:01.368Z,7.30
2018-08-04T18:21:30.163Z,7.63
2018-08-04T18:23:58.928Z,7.23
2018-08-04T18:26:27.885Z,6.43
2018-08-04T18:28:56.283Z,7.40
2018-08-04T18:31:24.673Z,6.97
2018-08-04T18:33:53.342Z,7.20
2018-08-04T18:36:21.687Z,6.83
2018-08-04T18:38:50.663Z,7.00
2018-08-04T18:41:19.723Z,6.77
2018-08-04T18:43:48.615Z,6.90
2018-08-04T18:46:17.782Z,7.80
2018-08-04T18:48:45.791Z,6.60
2018-08-04T18:51:18.292Z,8.30
2018-08-04T18:53:47.084Z,7.17
2018-08-04T18:56:17.964Z,7.83
2018-08-04T18:58:57.199Z,8.70
2018-08-04T19:01:25.975Z,8.30
2018-08-04T19:03:54.585Z,8.67
2018-08-04T19:06:23.814Z,8.80
2018-08-04T19:08:52.424Z,9.10
2018-08-04T19:11:20.661Z,7.53
2018-08-04T19:13:49.893Z,7.70
2018-08-04T19:16:18.062Z,9.00
2018-08-04T19:18:46.391Z,9.27
2018-08-04T19:21:14.880Z,9.00
2018-08-04T19:23:43.436Z,9.43
2018-08-04T19:26:11.874Z,9.27
2018-08-04T19:28:40.415Z,8.40
2018-08-04T19:31:08.984Z,7.10
2018-08-04T19:33:37.448Z,8.13
2018-08-04T19:36:05.706Z,8.70
2018-08-04T19:38:33.810Z,8.90
2018-08-04T19:41:02.156Z,8.10
2018-08-04T19:43:30.452Z,9.43
2018-08-04T19:45:58.781Z,9.13
2018-08-04T19:48:27.285Z,9.00
2018-08-04T19:50:55.445Z,8.90
2018-08-04T19:53:23.782Z,8.40
2018-08-04T19:55:52.258Z,8.33
2018-08-04T19:58:20.583Z,9.20
2018-08-04T20:00:48.626Z,8.60
2018-08-04T20:03:16.770Z,9.73
2018-08-04T20:05:45.732Z,8.93
2018-08-04T20:08:14.089Z,9.57
2018-08-04T20:10:42.371Z,9.90
2018-08-04T20:13:10.680Z,8.90
2018-08-04T20:15:39.122Z,8.77
2018-08-04T20:18:07.678Z,9.43
2018-08-04T20:20:36.138Z,8.80
2018-08-04T20:23:04.666Z,8.67
2018-08-04T20:25:33.279Z,8.50
2018-08-04T20:28:01.665Z,8.43
2018-08-04T20:30:29.943Z,9.13
2018-08-04T20:32:58.245Z,8.57
2018-08-04T20:35:26.638Z,9.70
2018-08-04T20:37:55.101Z,10.03
2018-08-04T20:40:23.707Z,9.20
2018-08-04T20:42:52.170Z,10.27
2018-08-04T20:45:21.030Z,10.13
2018-08-04T20:47:49.459Z,10.10
2018-08-04T20:50:17.751Z,9.40
2018-08-04T20:52:46.238Z,9.47
2018-08-04T20:55:14.677Z,10.03
2018-08-04T20:57:42.897Z,9.37
2018-08-04T21:00:11.094Z,9.27
2018-08-04T21:02:39.445Z,9.97
2018-08-04T21:05:07.692Z,8.90
2018-08-04T21:07:35.955Z,9.43
2018-08-04T21:10:04.474Z,9.80
2018-08-04T21:12:32.417Z,9.83
2018-08-04T21:15:00.638Z,9.77
2018-08-04T21:17:28.858Z,9.50
2018-08-04T21:19:57.104Z,10.33
2018-08-04T21:22:25.397Z,10.80
2018-08-04T21:24:53.769Z,9.67
2018-08-04T21:27:22.255Z,9.90
2018-08-04T21:29:50.609Z,9.80
2018-08-04T21:32:19.462Z,9.27
2018-08-04T21:34:48.488Z,10.70
2018-08-04T21:37:16.925Z,8.70
2018-08-04T21:39:45.346Z,10.27
2018-08-04T21:42:13.677Z,10.20
2018-08-04T21:44:42.309Z,10.53
2018-08-04T21:47:10.699Z,9.50
2018-08-04T21:49:38.952Z,9.23
2018-08-04T21:52:07.310Z,9.67
2018-08-04T21:54:35.532Z,10.27
2018-08-04T21:57:03.724Z,10.27
2018-08-04T21:59:31.914Z,9.80
2018-08-04T22:02:00.158Z,9.60
2018-08-04T22:04:28.080Z,9.63
2018-08-04T22:08:06.571Z,10.90
2018-08-04T22:10:34.810Z,11.00
2018-08-04T22:13:03.078Z,10.37
2018-08-04T22:15:31.212Z,10.20
2018-08-04T22:17:59.237Z,9.40
2018-08-04T22:20:28.171Z,9.90
2018-08-04T22:25:34.956Z,9.97
2018-08-04T22:28:03.234Z,11.47
2018-08-04T22:30:31.622Z,11.07
2018-08-04T22:32:59.997Z,10.97
2018-08-04T22:35:28.893Z,11.27
2018-08-04T22:37:57.295Z,10.73
2018-08-04T22:40:25.566Z,10.40
2018-08-04T22:42:54.026Z,11.27
2018-08-04T22:46:25.613Z,11.30
2018-08-04T22:48:54.743Z,10.70
2018-08-04T22:51:25.291Z,10.90
2018-08-04T22:53:53.719Z,11.60
2018-08-04T22:56:22.041Z,11.07
2018-08-04T22:58:50.405Z,11.23
2018-08-04T23:01:19.441Z,11.70
2018-08-04T23:03:47.892Z,12.27
2018-08-04T23:06:16.184Z,11.30
2018-08-04T23:08:44.598Z,10.50
2018-08-04T23:11:12.915Z,12.77
2018-08-04T23:13:41.317Z,11.90
2018-08-04T23:16:09.445Z,12.27
2018-08-04T23:18:37.811Z,12.37
2018-08-04T23:21:06.521Z,11.90
2018-08-04T23:23:34.876Z,12.30
2018-08-04T23:26:03.404Z,12.33
2018-08-04T23:28:31.774Z,12.30
2018-08-04T23:31:00.220Z,11.40
2018-08-04T23:33:28.638Z,11.60
2018-08-04T23:35:57.007Z,12.53
2018-08-04T23:38:25.476Z,12.37
2018-08-04T23:40:54.943Z,11.70
2018-08-04T23:43:23.324Z,13.20
2018-08-04T23:45:51.711Z,12.50
2018-08-04T23:48:19.814Z,13.47
2018-08-04T23:50:47.893Z,12.63
2018-08-04T23:53:16.397Z,12.17
2018-08-04T23:55:44.796Z,13.20
2018-08-04T23:58:13.232Z,13.00
